Time;durP1;ratioP1;P1;durP2;ratioP2;P2;SDS_P1;SDS_P2;PMS_P1;PMS_P2;Temp;Humidity;BMP_temperature;BMP_pressure;BME280_temperature;BME280_humidity;BME280_pressure;Samples;Min_cycle;Max_cycle;Signal;HPM_P1;HPM_P2
2021/03/01 00:02:09;;;;;;;54.92;25.50;;;2.90;99.90;;;;;;4845492;29;20476;-93
2021/03/01 00:04:34;;;;;;;57.28;24.63;;;2.90;99.90;;;;;;4845827;29;20508;-93
2021/03/01 00:07:00;;;;;;;49.55;24.30;;;2.90;99.90;;;;;;4850844;29;20034;-93
2021/03/01 00:09:26;;;;;;;55.50;23.38;;;2.80;99.90;;;;;;4865364;29;20551;-92
2021/03/01 00:11:51;;;;;;;46.25;23.00;;;2.80;99.90;;;;;;4862371;29;20030;-93
2021/03/01 00:14:17;;;;;;;47.97;23.05;;;2.80;99.90;;;;;;4862079;29;20039;-92
2021/03/01 00:16:42;;;;;;;44.20;22.48;;;2.80;99.90;;;;;;4845607;29;20120;-93
2021/03/01 00:19:08;;;;;;;48.78;23.45;;;2.80;99.90;;;;;;4861484;29;20036;-93
2021/03/01 00:21:34;;;;;;;45.63;23.33;;;2.80;99.90;;;;;;4845374;29;20142;-92
2021/03/01 00:23:59;;;;;;;47.35;22.38;;;2.70;99.90;;;;;;4845443;29;20120;-93
2021/03/01 00:26:25;;;;;;;44.70;22.80;;;2.70;99.90;;;;;;4846077;29;20037;-92
2021/03/01 00:28:50;;;;;;;46.10;21.65;;;2.70;99.90;;;;;;4846248;29;20037;-94
2021/03/01 00:31:16;;;;;;;47.15;23.20;;;2.70;99.90;;;;;;4845613;29;20033;-93
2021/03/01 00:33:42;;;;;;;58.65;23.65;;;2.60;99.90;;;;;;4862258;29;20041;-93
2021/03/01 00:36:07;;;;;;;48.42;21.92;;;2.60;99.90;;;;;;4845753;29;20036;-94
2021/03/01 00:38:33;;;;;;;53.70;22.90;;;2.50;99.90;;;;;;4845807;29;20033;-93
2021/03/01 00:40:59;;;;;;;51.92;23.20;;;2.60;99.90;;;;;;4862084;29;20555;-93
2021/03/01 00:43:29;;;;;;;46.55;22.98;;;2.50;99.90;;;;;;4861730;29;20057;-93
2021/03/01 00:45:55;;;;;;;43.88;22.25;;;2.50;99.90;;;;;;4845292;29;20044;-93
2021/03/01 00:48:20;;;;;;;49.25;23.30;;;2.50;99.90;;;;;;4845251;29;20492;-93
2021/03/01 00:50:46;;;;;;;51.35;23.20;;;2.50;99.90;;;;;;4845407;29;20043;-93
2021/03/01 00:53:23;;;;;;;47.05;21.15;;;2.50;99.90;;;;;;4861508;29;20045;-93
2021/03/01 00:55:50;;;;;;;46.83;22.35;;;2.40;99.90;;;;;;4861720;29;20491;-93
2021/03/01 00:58:16;;;;;;;46.10;21.77;;;2.40;99.90;;;;;;4849354;29;20132;-93
2021/03/01 01:00:43;;;;;;;44.40;22.35;;;2.40;99.90;;;;;;4853440;29;20033;-93
2021/03/01 01:03:09;;;;;;;43.65;22.20;;;2.40;99.90;;;;;;4868228;29;20085;-93
2021/03/01 01:05:35;;;;;;;43.90;20.42;;;2.40;99.90;;;;;;4865027;29;20059;-93
2021/03/01 01:08:00;;;;;;;47.25;22.85;;;2.40;99.90;;;;;;4846744;29;20060;-93
2021/03/01 01:10:26;;;;;;;47.65;23.33;;;2.40;99.90;;;;;;4862774;29;20030;-92
2021/03/01 01:12:52;;;;;;;52.47;23.70;;;2.40;99.90;;;;;;4846547;29;20033;-92
2021/03/01 01:15:18;;;;;;;54.38;22.98;;;2.40;99.90;;;;;;4864076;29;20666;-92
2021/03/01 01:17:44;;;;;;;48.42;21.88;;;2.40;99.90;;;;;;4866203;29;20086;-93
2021/03/01 01:20:11;;;;;;;48.42;22.90;;;2.40;99.90;;;;;;4849079;29;20479;-92
2021/03/01 01:22:37;;;;;;;48.35;22.85;;;2.30;99.90;;;;;;4864985;29;20029;-92
2021/03/01 01:25:09;;;;;;;47.97;21.90;;;2.30;99.90;;;;;;4865220;29;20037;-93
2021/03/01 01:27:35;;;;;;;53.95;22.38;;;2.20;99.90;;;;;;4865025;29;20480;-92
2021/03/01 01:30:01;;;;;;;52.58;24.95;;;2.20;99.90;;;;;;4848245;29;20033;-93
2021/03/01 01:32:26;;;;;;;48.60;23.42;;;2.20;99.90;;;;;;4864432;29;20479;-93
2021/03/01 01:34:52;;;;;;;53.67;24.88;;;2.20;99.90;;;;;;4865202;29;20033;-94
2021/03/01 01:37:17;;;;;;;52.85;25.30;;;2.20;99.90;;;;;;4852464;29;20136;-93
2021/03/01 01:39:43;;;;;;;50.83;23.58;;;2.20;99.90;;;;;;4876248;29;20082;-93
2021/03/01 01:42:09;;;;;;;51.85;23.02;;;2.20;99.90;;;;;;4864206;29;20033;-94
2021/03/01 01:44:35;;;;;;;49.88;24.08;;;2.10;99.90;;;;;;4847765;29;20033;-93
2021/03/01 01:47:00;;;;;;;49.88;22.98;;;2.10;99.90;;;;;;4848285;29;20400;-92
2021/03/01 01:49:26;;;;;;;50.67;24.23;;;2.10;99.90;;;;;;4849250;29;20495;-93
2021/03/01 01:51:52;;;;;;;50.08;22.17;;;2.10;99.90;;;;;;4864585;29;20033;-93
2021/03/01 01:54:17;;;;;;;49.63;22.58;;;2.10;99.90;;;;;;4848051;29;20030;-93
2021/03/01 01:56:43;;;;;;;43.97;21.77;;;2.10;99.90;;;;;;4863840;29;20026;-93
2021/03/01 01:59:09;;;;;;;52.42;24.55;;;2.00;99.90;;;;;;4863641;29;20037;-93
2021/03/01 02:01:35;;;;;;;47.20;23.35;;;2.00;99.90;;;;;;4863899;29;20037;-93
2021/03/01 02:04:33;;;;;;;50.05;23.02;;;2.00;99.90;;;;;;4863358;29;20427;-92
2021/03/01 02:07:20;;;;;;;46.80;21.55;;;2.00;99.90;;;;;;4853316;29;20617;-92
2021/03/01 02:10:10;;;;;;;45.17;22.08;;;2.00;99.90;;;;;;4847148;29;20041;-92
2021/03/01 02:12:45;;;;;;;41.77;19.50;;;1.90;99.90;;;;;;4847092;29;20040;-92
2021/03/01 02:15:18;;;;;;;42.15;19.65;;;1.90;99.90;;;;;;4847355;29;20488;-92
2021/03/01 02:17:44;;;;;;;43.50;21.58;;;1.90;99.90;;;;;;4863386;29;20029;-92
2021/03/01 02:20:11;;;;;;;41.97;20.30;;;1.90;99.90;;;;;;4846587;29;20571;-93
2021/03/01 02:22:38;;;;;;;39.17;19.25;;;1.80;99.90;;;;;;4847080;29;20028;-92
2021/03/01 02:25:09;;;;;;;45.15;20.88;;;1.80;99.90;;;;;;4873699;29;20429;-93
2021/03/01 02:27:40;;;;;;;43.05;20.98;;;1.80;99.90;;;;;;4872660;29;20041;-92
2021/03/01 02:30:23;;;;;;;41.90;19.30;;;1.70;99.90;;;;;;4853899;29;20049;-92
2021/03/01 02:32:52;;;;;;;43.90;20.65;;;1.70;99.90;;;;;;4868372;29;20056;-92
2021/03/01 02:35:19;;;;;;;49.15;21.23;;;1.70;99.90;;;;;;4849915;29;20045;-91
2021/03/01 02:37:47;;;;;;;48.05;22.35;;;1.60;99.90;;;;;;4846876;29;20033;-90
2021/03/01 02:40:16;;;;;;;49.42;23.65;;;1.60;99.90;;;;;;4846367;29;20082;-91
2021/03/01 02:42:42;;;;;;;52.08;21.73;;;1.60;99.90;;;;;;4846360;29;20033;-92
2021/03/01 02:45:09;;;;;;;45.03;20.23;;;1.60;99.90;;;;;;4846566;29;20051;-92
2021/03/01 02:47:35;;;;;;;42.85;19.85;;;1.60;99.90;;;;;;4846031;29;20045;-92
2021/03/01 02:50:02;;;;;;;43.33;21.02;;;1.60;99.90;;;;;;4846147;29;20072;-92
2021/03/01 02:52:29;;;;;;;42.38;19.27;;;1.60;99.90;;;;;;4846228;29;20396;-92
2021/03/01 02:54:55;;;;;;;49.30;21.63;;;1.50;99.90;;;;;;4862824;29;20034;-92
2021/03/01 02:57:23;;;;;;;48.03;21.73;;;1.50;99.90;;;;;;4846104;29;20033;-92
2021/03/01 02:59:50;;;;;;;46.70;22.02;;;1.40;99.90;;;;;;4862847;29;20037;-92
2021/03/01 03:02:17;;;;;;;46.05;20.35;;;1.40;99.90;;;;;;4845387;29;20132;-92
2021/03/01 03:04:45;;;;;;;43.75;19.98;;;1.40;99.90;;;;;;4862550;29;20093;-91
2021/03/01 03:07:11;;;;;;;42.80;20.25;;;1.40;99.90;;;;;;4860771;29;20029;-91
2021/03/01 03:09:38;;;;;;;48.78;20.60;;;1.30;99.90;;;;;;4874714;29;20009;-90
2021/03/01 03:12:05;;;;;;;49.95;19.92;;;1.30;99.90;;;;;;4864937;29;20032;-92
2021/03/01 03:14:34;;;;;;;53.88;20.67;;;1.30;99.90;;;;;;4845811;29;20057;-90
2021/03/01 03:17:00;;;;;;;46.65;20.80;;;1.30;99.90;;;;;;4860915;29;20025;-92
2021/03/01 03:19:27;;;;;;;48.13;21.17;;;1.30;99.90;;;;;;4845706;29;20034;-91
2021/03/01 03:21:52;;;;;;;46.80;21.15;;;1.20;99.90;;;;;;4845397;29;20025;-91
2021/03/01 03:24:18;;;;;;;48.90;22.85;;;1.20;99.90;;;;;;4861751;29;20039;-91
2021/03/01 03:26:43;;;;;;;55.88;22.65;;;1.20;99.90;;;;;;4845138;29;20038;-91
2021/03/01 03:29:09;;;;;;;54.00;23.33;;;1.20;99.90;;;;;;4861005;29;20041;-92
2021/03/01 03:31:36;;;;;;;56.70;22.05;;;1.10;99.90;;;;;;4844842;29;20042;-91
2021/03/01 03:34:02;;;;;;;59.95;23.67;;;1.10;99.90;;;;;;4861686;29;20038;-91
2021/03/01 03:36:31;;;;;;;72.28;25.23;;;1.10;99.90;;;;;;4845102;29;20029;-91
2021/03/01 03:39:13;;;;;;;69.95;25.85;;;1.10;99.90;;;;;;4861434;29;20504;-92
2021/03/01 03:41:40;;;;;;;71.90;27.08;;;1.10;99.90;;;;;;4845430;29;20632;-91
2021/03/01 03:44:10;;;;;;;87.97;30.45;;;1.10;99.90;;;;;;4861774;29;20074;-91
2021/03/01 03:46:37;;;;;;;90.47;28.33;;;1.10;99.90;;;;;;4844568;29;20037;-92
2021/03/01 03:49:06;;;;;;;85.78;29.45;;;1.10;99.90;;;;;;4844765;29;20045;-92
2021/03/01 03:51:34;;;;;;;65.50;26.50;;;1.10;99.90;;;;;;4864769;29;20041;-92
2021/03/01 03:54:08;;;;;;;66.15;27.48;;;1.10;99.90;;;;;;4848727;29;20045;-92
2021/03/01 03:56:36;;;;;;;66.25;25.00;;;1.10;99.90;;;;;;4849657;29;20394;-91
2021/03/01 03:59:05;;;;;;;63.78;27.08;;;1.20;99.90;;;;;;4865260;29;20056;-91
2021/03/01 04:01:34;;;;;;;69.93;26.70;;;1.20;99.90;;;;;;4861756;29;20033;-91
2021/03/01 04:04:05;;;;;;;88.40;27.60;;;1.20;99.90;;;;;;4845460;29;20504;-91
2021/03/01 04:06:35;;;;;;;66.35;24.95;;;1.20;99.90;;;;;;4845124;29;20026;-91
2021/03/01 04:09:08;;;;;;;75.88;24.80;;;1.20;99.90;;;;;;4860296;29;20045;-91
2021/03/01 04:11:35;;;;;;;77.80;23.50;;;1.30;99.90;;;;;;4861471;29;20037;-91
2021/03/01 04:14:01;;;;;;;58.47;24.27;;;1.20;99.90;;;;;;4861451;29;20033;-91
2021/03/01 04:16:30;;;;;;;104.13;26.70;;;1.20;99.90;;;;;;4861288;29;20041;-91
2021/03/01 04:19:01;;;;;;;118.32;26.63;;;1.20;99.90;;;;;;4845058;29;20464;-90
2021/03/01 04:21:28;;;;;;;121.28;25.15;;;1.20;99.90;;;;;;4869598;29;20061;-90
2021/03/01 04:23:55;;;;;;;110.32;23.65;;;1.10;99.90;;;;;;4861479;29;20036;-91
2021/03/01 04:26:21;;;;;;;67.07;23.05;;;1.10;99.90;;;;;;4861305;29;20080;-90
2021/03/01 04:28:48;;;;;;;65.68;22.85;;;1.10;99.90;;;;;;4833575;29;20034;-88
2021/03/01 04:31:15;;;;;;;56.08;22.42;;;1.10;99.90;;;;;;4842931;29;20129;-91
2021/03/01 04:33:43;;;;;;;56.85;23.42;;;1.00;99.90;;;;;;4859448;29;20511;-90
2021/03/01 04:36:09;;;;;;;77.40;23.33;;;1.10;99.90;;;;;;4860108;29;20124;-90
2021/03/01 04:38:36;;;;;;;58.13;22.70;;;1.10;99.90;;;;;;4861245;29;20101;-90
2021/03/01 04:41:03;;;;;;;64.85;22.27;;;1.10;99.90;;;;;;4870144;29;20029;-91
2021/03/01 04:43:30;;;;;;;54.92;24.70;;;1.10;99.90;;;;;;4877049;29;20030;-91
2021/03/01 04:45:56;;;;;;;77.25;25.98;;;1.10;99.90;;;;;;4861540;29;20026;-90
2021/03/01 04:48:25;;;;;;;106.85;25.08;;;1.10;99.90;;;;;;4860684;29;20044;-90
2021/03/01 04:50:53;;;;;;;103.28;26.20;;;1.10;99.90;;;;;;4863556;29;20025;-91
2021/03/01 04:53:19;;;;;;;74.68;25.13;;;1.10;99.90;;;;;;4864606;29;20041;-91
2021/03/01 04:55:46;;;;;;;79.35;25.30;;;1.10;99.90;;;;;;4848395;29;20034;-90
2021/03/01 04:58:14;;;;;;;143.70;27.73;;;1.10;99.90;;;;;;4864510;29;20033;-91
2021/03/01 05:00:41;;;;;;;136.60;25.58;;;1.10;99.90;;;;;;4863113;29;20082;-90
2021/03/01 05:03:07;;;;;;;78.90;25.55;;;1.00;99.90;;;;;;4863321;29;20041;-90
2021/03/01 05:05:34;;;;;;;134.60;29.45;;;1.00;99.90;;;;;;4863345;29;20105;-90
2021/03/01 05:08:03;;;;;;;128.85;25.70;;;1.00;99.90;;;;;;4861571;29;20045;-90
2021/03/01 05:10:31;;;;;;;152.68;26.20;;;1.00;99.90;;;;;;4847168;29;20120;-91
2021/03/01 05:12:57;;;;;;;144.43;27.10;;;1.00;99.90;;;;;;4863170;29;20080;-90
2021/03/01 05:15:22;;;;;;;116.68;26.35;;;1.00;99.90;;;;;;4863611;29;20120;-92
2021/03/01 05:17:48;;;;;;;156.80;30.95;;;1.00;99.90;;;;;;4846542;29;20041;-92
2021/03/01 05:20:14;;;;;;;185.18;29.13;;;1.00;99.90;;;;;;4863566;29;20122;-91
2021/03/01 05:22:40;;;;;;;144.27;27.48;;;0.90;99.90;;;;;;4862556;29;20511;-91
2021/03/01 05:25:07;;;;;;;211.02;26.85;;;0.90;99.90;;;;;;4846965;29;20496;-91
2021/03/01 05:27:34;;;;;;;153.40;27.52;;;0.90;99.90;;;;;;4861922;29;20121;-92
2021/03/01 05:30:01;;;;;;;138.02;24.70;;;0.80;99.90;;;;;;4863990;29;20116;-92
2021/03/01 05:32:26;;;;;;;106.60;25.58;;;0.80;99.90;;;;;;4863825;29;20564;-91
2021/03/01 05:34:53;;;;;;;123.53;25.67;;;0.80;99.90;;;;;;4862793;29;20073;-92
2021/03/01 05:37:19;;;;;;;84.38;23.10;;;0.80;99.90;;;;;;4847273;29;20147;-92
2021/03/01 05:39:44;;;;;;;77.32;22.85;;;0.80;99.90;;;;;;4847420;29;20385;-92
2021/03/01 05:42:12;;;;;;;162.00;24.75;;;0.80;99.90;;;;;;4862623;29;20094;-92
2021/03/01 05:44:40;;;;;;;106.40;25.38;;;0.90;99.90;;;;;;4847183;29;20057;-91
2021/03/01 05:47:09;;;;;;;168.40;28.20;;;0.80;99.90;;;;;;4847065;29;20041;-91
2021/03/01 05:49:39;;;;;;;129.32;27.08;;;0.80;99.90;;;;;;4863416;29;20059;-90
2021/03/01 05:52:06;;;;;;;95.77;26.57;;;0.80;99.90;;;;;;4863665;29;20032;-91
2021/03/01 05:54:35;;;;;;;90.07;26.40;;;0.70;99.90;;;;;;4847194;29;20037;-91
2021/03/01 05:57:05;;;;;;;312.20;33.42;;;0.70;99.90;;;;;;4863307;29;20049;-92
2021/03/01 05:59:31;;;;;;;165.65;27.55;;;0.70;99.90;;;;;;4863261;29;20037;-92
2021/03/01 06:01:57;;;;;;;88.85;25.60;;;0.70;99.90;;;;;;4847049;29;20033;-92
2021/03/01 06:04:23;;;;;;;121.85;25.95;;;0.70;99.90;;;;;;4862840;29;20120;-93
2021/03/01 06:06:49;;;;;;;167.93;26.30;;;0.70;99.90;;;;;;4863364;29;20056;-92
2021/03/01 06:09:15;;;;;;;104.00;25.73;;;0.70;99.90;;;;;;4846848;29;20041;-92
2021/03/01 06:11:41;;;;;;;124.50;25.75;;;0.70;99.90;;;;;;4847241;29;20036;-92
2021/03/01 06:14:07;;;;;;;158.05;29.58;;;0.70;99.90;;;;;;4860398;29;20033;-92
2021/03/01 06:16:33;;;;;;;154.13;29.67;;;0.60;99.90;;;;;;4865643;29;20021;-92
2021/03/01 06:18:59;;;;;;;173.48;28.15;;;0.60;99.90;;;;;;4845750;29;20041;-90
2021/03/01 06:21:25;;;;;;;160.88;25.98;;;0.60;99.90;;;;;;4862307;29;20057;-92
2021/03/01 06:23:53;;;;;;;174.27;29.05;;;0.50;99.90;;;;;;4857003;29;20021;-91
2021/03/01 06:26:25;;;;;;;109.32;24.70;;;0.50;99.90;;;;;;4862322;29;20037;-92
2021/03/01 06:29:01;;;;;;;70.00;23.02;;;0.40;99.90;;;;;;4845633;29;20408;-91
2021/03/01 06:31:42;;;;;;;73.22;25.67;;;0.40;99.90;;;;;;4844274;29;20033;-91
2021/03/01 06:34:31;;;;;;;100.43;25.10;;;0.30;99.90;;;;;;4860750;29;20082;-91
2021/03/01 06:37:05;;;;;;;177.82;25.20;;;0.40;99.90;;;;;;4842174;29;20078;-92
2021/03/01 06:39:38;;;;;;;100.13;21.95;;;0.40;99.90;;;;;;4860022;29;20032;-92
2021/03/01 06:42:20;;;;;;;64.45;21.20;;;0.40;99.90;;;;;;4842213;29;20068;-91
2021/03/01 06:44:56;;;;;;;85.85;23.88;;;0.30;99.90;;;;;;4860184;29;20050;-90
2021/03/01 06:47:42;;;;;;;131.32;25.42;;;0.30;99.90;;;;;;4844129;29;20033;-91
2021/03/01 06:50:22;;;;;;;94.07;21.05;;;0.30;99.90;;;;;;4847613;29;20033;-91
2021/03/01 06:52:49;;;;;;;75.85;21.75;;;0.30;99.90;;;;;;4847630;29;20034;-91
2021/03/01 06:55:15;;;;;;;83.15;21.85;;;0.30;99.90;;;;;;4863797;29;20418;-89
2021/03/01 06:57:41;;;;;;;70.28;20.77;;;0.40;99.90;;;;;;4860977;29;20060;-91
2021/03/01 07:00:07;;;;;;;68.70;23.08;;;0.40;99.90;;;;;;4860227;29;20526;-91
2021/03/01 07:02:40;;;;;;;128.02;27.67;;;0.40;99.90;;;;;;4861646;29;20089;-91
2021/03/01 07:05:06;;;;;;;155.85;25.13;;;0.40;99.90;;;;;;4839051;29;20022;-90
2021/03/01 07:07:37;;;;;;;65.35;23.17;;;0.40;99.90;;;;;;4843802;29;20038;-91
2021/03/01 07:10:08;;;;;;;61.58;21.13;;;0.30;99.90;;;;;;4860523;29;20045;-89
2021/03/01 07:12:41;;;;;;;65.05;22.27;;;0.30;99.90;;;;;;4860749;29;20030;-91
2021/03/01 07:15:10;;;;;;;65.15;20.70;;;0.30;99.90;;;;;;4857558;29;20074;-91
2021/03/01 07:17:42;;;;;;;53.47;20.58;;;0.30;99.90;;;;;;4861014;29;20033;-91
2021/03/01 07:20:11;;;;;;;84.32;22.67;;;0.40;99.90;;;;;;4842295;29;20124;-91
2021/03/01 07:22:43;;;;;;;60.72;21.45;;;0.40;99.90;;;;;;4859875;29;20025;-90
2021/03/01 07:25:12;;;;;;;54.65;21.95;;;0.40;99.90;;;;;;4859880;29;20136;-90
2021/03/01 07:27:40;;;;;;;62.50;22.92;;;0.50;99.90;;;;;;4843290;29;20057;-91
2021/03/01 07:30:07;;;;;;;53.83;21.83;;;0.50;99.90;;;;;;4840468;29;20112;-90
2021/03/01 07:32:35;;;;;;;47.15;22.42;;;0.50;99.90;;;;;;4843380;29;20092;-92
2021/03/01 07:35:01;;;;;;;43.70;20.35;;;0.60;99.90;;;;;;4843543;29;20044;-91
2021/03/01 07:37:27;;;;;;;58.78;24.50;;;0.60;99.90;;;;;;4843990;29;20033;-91
2021/03/01 07:39:53;;;;;;;63.88;23.98;;;0.70;99.90;;;;;;4860129;29;20469;-91
2021/03/01 07:42:19;;;;;;;52.10;22.02;;;0.70;99.90;;;;;;4860955;29;20029;-91
2021/03/01 07:44:47;;;;;;;47.47;20.00;;;0.70;99.90;;;;;;4861193;29;20025;-90
2021/03/01 07:47:13;;;;;;;56.35;20.23;;;0.70;99.90;;;;;;4863780;29;20037;-90
2021/03/01 07:49:51;;;;;;;56.63;21.65;;;0.70;99.90;;;;;;4844838;29;20113;-91
2021/03/01 07:52:19;;;;;;;51.22;21.08;;;0.70;99.90;;;;;;4861024;29;20041;-91
2021/03/01 07:54:59;;;;;;;49.92;21.95;;;0.70;99.90;;;;;;4861412;29;20069;-91
2021/03/01 07:57:27;;;;;;;46.42;20.30;;;0.70;99.90;;;;;;4828893;29;20033;-91
2021/03/01 07:59:54;;;;;;;47.00;21.15;;;0.70;99.90;;;;;;4843389;29;20029;-90
2021/03/01 08:02:25;;;;;;;43.13;19.63;;;0.70;99.90;;;;;;4845680;29;20092;-91
2021/03/01 08:04:55;;;;;;;43.00;18.50;;;0.80;99.90;;;;;;4848552;29;20174;-90
2021/03/01 08:07:38;;;;;;;64.37;25.77;;;0.80;99.90;;;;;;4857504;29;20045;-91
2021/03/01 08:10:06;;;;;;;47.53;21.33;;;0.80;99.90;;;;;;4843511;29;20282;-91
2021/03/01 08:12:32;;;;;;;39.17;18.33;;;0.90;99.90;;;;;;4859744;29;20034;-90
2021/03/01 08:15:08;;;;;;;42.67;20.00;;;0.80;99.90;;;;;;4860364;29;20026;-89
2021/03/01 08:17:39;;;;;;;49.90;20.42;;;0.90;99.90;;;;;;4843126;29;20042;-90
2021/03/01 08:20:16;;;;;;;47.97;20.73;;;0.90;99.90;;;;;;4860614;29;20037;-90
2021/03/01 08:23:07;;;;;;;49.03;21.13;;;0.90;99.90;;;;;;4842888;29;20037;-90
2021/03/01 08:25:48;;;;;;;52.67;21.05;;;0.90;99.90;;;;;;4863461;29;20017;-90
2021/03/01 08:28:20;;;;;;;53.65;21.58;;;0.90;99.90;;;;;;4847811;29;20042;-90
2021/03/01 08:30:49;;;;;;;69.13;22.08;;;0.90;99.90;;;;;;4847214;29;20078;-91
2021/03/01 08:33:15;;;;;;;52.60;23.08;;;0.90;99.90;;;;;;4861361;29;20124;-90
2021/03/01 08:35:41;;;;;;;56.38;23.75;;;0.90;99.90;;;;;;4861954;29;20072;-90
2021/03/01 08:38:08;;;;;;;52.17;21.45;;;0.90;99.90;;;;;;4846780;29;20112;-90
2021/03/01 08:40:36;;;;;;;63.15;23.20;;;1.00;99.90;;;;;;4847128;29;20045;-91
2021/03/01 08:43:02;;;;;;;68.35;24.63;;;1.10;99.90;;;;;;4843830;29;20090;-91
2021/03/01 08:45:44;;;;;;;59.53;23.98;;;1.20;99.90;;;;;;4862354;29;20555;-91
2021/03/01 08:48:16;;;;;;;61.22;24.08;;;1.30;99.90;;;;;;4847209;29;20045;-91
2021/03/01 08:50:43;;;;;;;73.45;27.08;;;1.40;99.90;;;;;;4850974;29;20044;-90
2021/03/01 08:53:10;;;;;;;57.47;22.60;;;1.50;99.90;;;;;;4820194;29;20472;-91
2021/03/01 08:55:38;;;;;;;61.67;23.20;;;1.60;99.90;;;;;;4845140;29;20522;-91
2021/03/01 08:58:09;;;;;;;70.38;24.73;;;1.70;99.90;;;;;;4846012;29;20028;-91
2021/03/01 09:00:37;;;;;;;67.30;23.48;;;1.80;99.90;;;;;;4838178;29;20034;-91
2021/03/01 09:03:16;;;;;;;67.75;24.98;;;1.80;99.90;;;;;;4861923;29;20034;-92
2021/03/01 09:05:44;;;;;;;69.53;23.92;;;1.90;99.90;;;;;;4846822;29;20029;-91
2021/03/01 09:08:11;;;;;;;70.13;26.00;;;1.90;99.90;;;;;;4845843;29;20034;-92
2021/03/01 09:10:43;;;;;;;70.75;26.20;;;2.00;99.90;;;;;;4844430;29;20526;-91
2021/03/01 09:13:14;;;;;;;63.25;23.95;;;2.10;99.90;;;;;;4858135;29;20026;-92
2021/03/01 09:15:40;;;;;;;68.25;25.38;;;2.10;99.90;;;;;;4846204;29;20037;-93
2021/03/01 09:18:08;;;;;;;61.10;23.55;;;2.20;99.90;;;;;;4873454;29;20116;-92
2021/03/01 09:21:04;;;;;;;64.28;24.38;;;2.30;99.90;;;;;;4862401;29;20383;-93
2021/03/01 09:23:51;;;;;;;60.05;23.83;;;2.40;99.90;;;;;;4856656;29;20124;-92
2021/03/01 09:26:24;;;;;;;60.70;22.20;;;2.50;99.90;;;;;;4861483;29;20029;-93
2021/03/01 09:29:11;;;;;;;56.42;23.35;;;2.60;99.90;;;;;;4851435;29;20094;-93
2021/03/01 09:31:43;;;;;;;49.08;19.80;;;2.70;99.90;;;;;;4861031;29;20045;-93
2021/03/01 09:34:10;;;;;;;46.20;16.48;;;2.90;99.90;;;;;;4847524;29;20034;-92
2021/03/01 09:36:36;;;;;;;45.00;15.52;;;2.90;99.90;;;;;;4845485;29;20034;-93
2021/03/01 09:39:05;;;;;;;30.60;11.18;;;3.10;99.90;;;;;;4865123;29;20030;-94
2021/03/01 09:41:36;;;;;;;22.30;9.55;;;3.10;99.90;;;;;;4848031;29;20078;-93
2021/03/01 09:44:02;;;;;;;22.48;9.02;;;3.20;99.90;;;;;;4866564;29;20057;-94
2021/03/01 09:46:29;;;;;;;14.77;6.82;;;3.30;99.90;;;;;;4865193;29;20041;-94
2021/03/01 09:49:01;;;;;;;15.75;6.43;;;3.40;99.90;;;;;;4848603;29;20037;-93
2021/03/01 09:51:28;;;;;;;15.63;7.30;;;3.50;99.90;;;;;;4869105;29;20045;-94
2021/03/01 09:53:54;;;;;;;16.25;6.07;;;3.60;99.90;;;;;;4856954;29;20021;-92
2021/03/01 09:56:19;;;;;;;16.02;6.60;;;3.70;99.90;;;;;;4853222;29;20476;-92
2021/03/01 09:58:46;;;;;;;19.98;8.75;;;3.80;99.90;;;;;;4851541;29;20080;-93
2021/03/01 10:01:17;;;;;;;16.90;6.68;;;3.80;99.90;;;;;;4848598;29;20029;-93
2021/03/01 10:03:49;;;;;;;11.45;5.85;;;3.90;99.90;;;;;;4847562;29;20496;-93
2021/03/01 10:06:28;;;;;;;8.43;4.28;;;4.00;99.90;;;;;;4863085;29;20053;-93
2021/03/01 10:09:04;;;;;;;12.45;5.85;;;4.10;99.90;;;;;;4848262;29;20485;-94
2021/03/01 10:11:30;;;;;;;10.98;4.68;;;4.10;99.90;;;;;;4845712;29;20030;-92
2021/03/01 10:14:06;;;;;;;8.95;3.83;;;4.10;99.90;;;;;;4845357;29;20057;-93
2021/03/01 10:16:36;;;;;;;9.48;5.43;;;4.20;99.90;;;;;;4845787;29;20034;-93
2021/03/01 10:19:22;;;;;;;8.52;4.63;;;4.30;99.90;;;;;;4843940;29;20504;-92
2021/03/01 10:21:49;;;;;;;11.70;4.65;;;4.40;99.90;;;;;;4845691;29;20038;-91
2021/03/01 10:24:18;;;;;;;8.50;4.13;;;4.40;99.90;;;;;;4830538;29;20037;-93
2021/03/01 10:26:58;;;;;;;8.23;4.22;;;4.40;99.90;;;;;;4865408;29;20124;-93
2021/03/01 10:29:53;;;;;;;6.75;3.63;;;4.50;99.90;;;;;;4864739;29;20048;-93
2021/03/01 10:32:23;;;;;;;8.50;4.20;;;4.60;99.90;;;;;;4848839;29;20047;-94
2021/03/01 10:34:50;;;;;;;44.30;18.52;;;4.60;99.90;;;;;;4846538;29;20112;-93
2021/03/01 10:37:17;;;;;;;11.07;5.18;;;4.70;99.90;;;;;;4846666;29;20041;-93
2021/03/01 10:39:47;;;;;;;12.70;6.32;;;4.70;99.90;;;;;;4847336;29;20029;-93
2021/03/01 10:42:15;;;;;;;14.30;6.53;;;4.80;99.90;;;;;;4846734;29;20030;-93
2021/03/01 10:44:53;;;;;;;15.10;7.55;;;4.80;99.90;;;;;;4863281;29;20468;-93
2021/03/01 10:47:24;;;;;;;11.90;6.15;;;4.80;99.90;;;;;;4856583;29;20030;-91
2021/03/01 10:50:04;;;;;;;11.75;5.57;;;4.80;99.90;;;;;;4865682;29;20034;-93
2021/03/01 10:52:30;;;;;;;12.18;5.63;;;4.80;99.90;;;;;;4861873;29;20891;-93
2021/03/01 10:54:57;;;;;;;12.75;5.72;;;4.80;99.90;;;;;;4845139;29;20109;-93
2021/03/01 10:57:24;;;;;;;11.50;5.50;;;4.80;99.90;;;;;;4861860;29;20021;-93
2021/03/01 10:59:54;;;;;;;13.68;5.45;;;4.80;99.90;;;;;;4844833;29;20036;-94
2021/03/01 11:02:20;;;;;;;7.57;4.75;;;4.80;99.90;;;;;;4845112;29;20430;-93
2021/03/01 11:04:46;;;;;;;9.27;4.68;;;4.90;99.90;;;;;;4845001;29;20041;-92
2021/03/01 11:07:13;;;;;;;8.68;4.82;;;4.90;99.90;;;;;;4845294;29;20031;-93
2021/03/01 11:09:38;;;;;;;11.52;5.45;;;4.90;99.90;;;;;;4843581;29;20036;-93
2021/03/01 11:12:05;;;;;;;10.50;5.10;;;5.00;99.90;;;;;;4848551;29;20033;-94
2021/03/01 11:14:31;;;;;;;15.10;5.57;;;5.00;99.90;;;;;;4879965;29;20021;-93
2021/03/01 11:16:58;;;;;;;21.88;8.48;;;5.10;99.90;;;;;;4863746;29;20029;-92
2021/03/01 11:19:25;;;;;;;25.35;10.23;;;5.10;99.90;;;;;;4863649;29;20559;-94
2021/03/01 11:21:51;;;;;;;21.73;9.25;;;5.20;99.90;;;;;;4863525;29;20488;-92
2021/03/01 11:24:20;;;;;;;23.95;9.60;;;5.20;99.90;;;;;;4864344;29;20025;-93
2021/03/01 11:26:46;;;;;;;26.17;10.27;;;5.30;99.90;;;;;;4880439;29;20025;-94
2021/03/01 11:29:11;;;;;;;24.42;9.50;;;5.40;99.90;;;;;;4863376;29;20078;-94
2021/03/01 11:31:37;;;;;;;22.33;9.30;;;5.40;99.90;;;;;;4881215;29;20044;-93
2021/03/01 11:34:05;;;;;;;22.45;9.23;;;5.50;99.90;;;;;;4864096;29;20041;-94
2021/03/01 11:36:31;;;;;;;22.63;9.70;;;5.60;99.90;;;;;;4879965;29;20029;-93
2021/03/01 11:38:58;;;;;;;19.33;7.90;;;5.60;99.90;;;;;;4862775;29;20033;-94
2021/03/01 11:41:24;;;;;;;22.77;9.27;;;5.70;99.90;;;;;;4868013;29;20105;-93
2021/03/01 11:43:51;;;;;;;21.80;9.25;;;5.70;99.90;;;;;;4845136;29;20481;-93
2021/03/01 11:46:17;;;;;;;19.02;8.68;;;5.70;99.90;;;;;;4861946;29;20089;-92
2021/03/01 11:48:43;;;;;;;21.80;8.90;;;5.80;99.90;;;;;;4861023;29;20449;-93
2021/03/01 11:51:10;;;;;;;23.55;10.00;;;5.90;99.90;;;;;;4861295;29;20484;-92
2021/03/01 11:53:36;;;;;;;22.90;9.55;;;6.00;99.90;;;;;;4860797;29;20117;-92
2021/03/01 11:56:02;;;;;;;18.08;8.50;;;6.00;99.90;;;;;;4844550;29;20124;-93
2021/03/01 11:58:28;;;;;;;18.30;9.10;;;6.10;99.90;;;;;;4844219;29;20039;-93
2021/03/01 12:00:53;;;;;;;23.85;10.60;;;6.20;99.90;;;;;;4846049;29;20077;-92
2021/03/01 12:03:19;;;;;;;19.08;8.45;;;6.30;99.90;;;;;;4844966;29;20025;-93
2021/03/01 12:05:45;;;;;;;23.05;10.63;;;6.30;99.90;;;;;;4845852;29;20022;-93
2021/03/01 12:08:10;;;;;;;27.27;11.50;;;6.40;99.90;;;;;;4844667;29;20048;-93
2021/03/01 12:10:37;;;;;;;26.52;11.13;;;6.40;99.90;;;;;;4829225;29;20580;-93
2021/03/01 12:13:04;;;;;;;26.65;9.88;;;6.60;99.90;;;;;;4844509;29;20062;-94
2021/03/01 12:15:29;;;;;;;25.10;10.20;;;6.70;99.90;;;;;;4845072;29;20132;-93
2021/03/01 12:17:56;;;;;;;27.38;11.98;;;6.80;99.90;;;;;;4845861;29;20061;-92
2021/03/01 12:20:21;;;;;;;26.85;11.00;;;6.90;99.90;;;;;;4871018;29;20488;-93
2021/03/01 12:22:47;;;;;;;28.30;12.68;;;6.90;99.90;;;;;;4844896;29;20124;-93
2021/03/01 12:25:13;;;;;;;29.98;12.07;;;7.00;99.90;;;;;;4860939;29;20093;-94
2021/03/01 12:27:39;;;;;;;31.25;12.38;;;7.00;99.90;;;;;;4844821;29;20060;-93
2021/03/01 12:30:06;;;;;;;28.67;11.32;;;7.00;99.90;;;;;;4844885;29;20061;-93
2021/03/01 12:32:32;;;;;;;27.90;12.15;;;7.10;99.90;;;;;;4840657;29;20133;-93
2021/03/01 12:34:59;;;;;;;25.02;11.10;;;7.10;99.90;;;;;;4842808;29;20116;-93
2021/03/01 12:37:26;;;;;;;24.90;11.70;;;7.20;99.90;;;;;;4841581;29;20034;-94
2021/03/01 12:39:52;;;;;;;22.75;9.10;;;7.30;99.90;;;;;;4841974;29;20113;-93
2021/03/01 12:42:17;;;;;;;20.60;9.73;;;7.40;99.90;;;;;;4842923;29;20560;-92
2021/03/01 12:44:43;;;;;;;25.98;10.70;;;7.40;99.90;;;;;;4844780;29;20492;-93
2021/03/01 12:47:09;;;;;;;21.48;10.23;;;7.40;99.90;;;;;;4848247;29;20049;-91